Time;durP1;ratioP1;P1;durP2;ratioP2;P2;SDS_P1;SDS_P2;PMS_P1;PMS_P2;Temp;Humidity;BMP_temperature;BMP_pressure;BME280_temperature;BME280_humidity;BME280_pressure;Samples;Min_cycle;Max_cycle;Signal;HPM_P1;HPM_P2
2023/08/27 00:01:13;;;;;;;5.68;4.15;;;14.70;99.90;;;;;;5009594;28;20061;-84
2023/08/27 00:03:38;;;;;;;4.90;3.80;;;14.70;99.90;;;;;;5018217;28;20036;-84
2023/08/27 00:06:04;;;;;;;4.57;4.13;;;14.70;99.90;;;;;;5017861;28;20394;-84
2023/08/27 00:08:30;;;;;;;4.93;4.15;;;14.70;99.90;;;;;;5027680;28;20026;-84
2023/08/27 00:11:00;;;;;;;6.78;4.05;;;14.60;99.90;;;;;;5028461;28;20469;-85
2023/08/27 00:13:26;;;;;;;4.40;3.95;;;14.60;99.90;;;;;;5010997;28;20575;-85
2023/08/27 00:15:52;;;;;;;4.43;4.03;;;14.60;99.90;;;;;;5015693;28;20029;-86
2023/08/27 00:18:18;;;;;;;5.70;4.35;;;14.60;99.90;;;;;;5022642;28;20314;-84
2023/08/27 00:20:49;;;;;;;5.43;4.55;;;14.60;99.90;;;;;;5021743;28;20049;-84
2023/08/27 00:23:16;;;;;;;5.55;5.00;;;14.60;99.90;;;;;;5019900;28;20037;-85
2023/08/27 00:25:45;;;;;;;5.25;4.25;;;14.60;99.90;;;;;;5024933;28;20491;-85
2023/08/27 00:28:12;;;;;;;5.03;4.38;;;14.60;99.90;;;;;;5019772;28;20037;-84
2023/08/27 00:30:38;;;;;;;5.22;4.50;;;14.60;99.90;;;;;;5024338;28;20033;-85
2023/08/27 00:33:04;;;;;;;6.28;5.38;;;14.60;99.90;;;;;;5027159;28;20076;-85
2023/08/27 00:35:29;;;;;;;5.28;4.78;;;14.60;99.90;;;;;;5020667;28;20034;-84
2023/08/27 00:37:55;;;;;;;5.88;4.70;;;14.60;99.90;;;;;;5024885;28;20028;-85
2023/08/27 00:40:20;;;;;;;6.07;4.97;;;14.60;99.90;;;;;;5015067;28;20109;-85
2023/08/27 00:42:46;;;;;;;5.18;4.75;;;14.60;99.90;;;;;;5020377;28;20025;-85
2023/08/27 00:45:12;;;;;;;6.80;5.13;;;14.60;99.90;;;;;;5013859;28;20020;-84
2023/08/27 00:47:38;;;;;;;4.97;4.47;;;14.60;99.90;;;;;;5010656;28;20049;-85
2023/08/27 00:50:08;;;;;;;4.30;3.90;;;14.60;99.90;;;;;;5023066;28;20572;-84
2023/08/27 00:52:34;;;;;;;6.63;5.35;;;14.50;99.90;;;;;;5010080;28;20226;-85
2023/08/27 00:55:01;;;;;;;4.78;4.38;;;14.50;99.90;;;;;;5004529;28;20386;-84
2023/08/27 00:57:27;;;;;;;5.93;4.57;;;14.50;99.90;;;;;;5010154;28;20022;-84
2023/08/27 00:59:55;;;;;;;6.05;4.50;;;14.50;99.90;;;;;;5016323;28;20030;-84
2023/08/27 01:02:21;;;;;;;5.28;4.78;;;14.50;99.90;;;;;;5016995;28;20014;-85
2023/08/27 01:04:47;;;;;;;5.50;4.90;;;14.50;99.90;;;;;;5027113;28;20473;-86
2023/08/27 01:07:26;;;;;;;4.78;4.30;;;14.40;99.90;;;;;;5014630;28;20032;-85
2023/08/27 01:10:11;;;;;;;6.22;4.93;;;14.40;99.90;;;;;;5009896;28;20052;-85
2023/08/27 01:12:44;;;;;;;5.45;4.72;;;14.40;99.90;;;;;;5018337;28;20026;-85
2023/08/27 01:15:13;;;;;;;6.00;4.70;;;14.40;99.90;;;;;;5011817;28;20029;-85
2023/08/27 01:17:39;;;;;;;5.00;4.03;;;14.40;99.90;;;;;;5027220;28;20022;-85
2023/08/27 01:20:06;;;;;;;5.55;5.03;;;14.40;99.90;;;;;;5018848;28;20473;-84
2023/08/27 01:22:32;;;;;;;5.15;4.50;;;14.30;99.90;;;;;;5019180;28;20125;-86
2023/08/27 01:24:57;;;;;;;7.75;4.93;;;14.30;99.90;;;;;;5013821;28;20045;-84
2023/08/27 01:27:50;;;;;;;5.18;4.68;;;14.30;99.90;;;;;;5012187;28;20057;-85
2023/08/27 01:30:29;;;;;;;6.50;4.75;;;14.30;99.90;;;;;;5014128;28;20032;-86
2023/08/27 01:32:54;;;;;;;6.57;5.57;;;14.30;99.90;;;;;;5012528;28;20029;-85
2023/08/27 01:35:20;;;;;;;6.00;5.38;;;14.40;99.90;;;;;;5009480;28;20022;-86
2023/08/27 01:37:46;;;;;;;6.30;5.45;;;14.40;99.90;;;;;;5021157;28;20112;-85
2023/08/27 01:40:11;;;;;;;6.43;4.90;;;14.40;99.90;;;;;;5020828;28;20499;-85
2023/08/27 01:42:37;;;;;;;6.78;5.30;;;14.40;99.90;;;;;;5010691;28;20141;-85
2023/08/27 01:45:04;;;;;;;5.55;4.53;;;14.40;99.90;;;;;;5017476;28;20140;-85
2023/08/27 01:47:30;;;;;;;5.20;4.70;;;14.50;99.90;;;;;;5012793;28;20394;-85
2023/08/27 01:49:56;;;;;;;9.02;4.85;;;14.50;99.90;;;;;;5009926;28;20048;-85
2023/08/27 01:52:22;;;;;;;7.70;5.18;;;14.50;99.90;;;;;;5010681;28;20440;-85
2023/08/27 01:54:47;;;;;;;5.95;4.35;;;14.50;99.90;;;;;;5020879;28;20401;-84
2023/08/27 01:57:13;;;;;;;7.05;4.22;;;14.50;99.90;;;;;;5024369;28;20021;-85
2023/08/27 01:59:41;;;;;;;4.00;3.67;;;14.50;99.90;;;;;;5022995;28;20033;-85
2023/08/27 02:02:06;;;;;;;4.65;3.85;;;14.50;99.90;;;;;;5010527;28;20129;-85
2023/08/27 02:04:32;;;;;;;5.28;4.47;;;14.40;99.90;;;;;;5011119;28;20479;-85
2023/08/27 02:06:58;;;;;;;4.70;4.30;;;14.50;99.90;;;;;;5018761;28;20018;-85
2023/08/27 02:09:23;;;;;;;7.45;4.63;;;14.50;99.90;;;;;;5008613;28;20033;-85
2023/08/27 02:11:52;;;;;;;5.18;4.68;;;14.50;99.90;;;;;;5026275;28;20093;-85
2023/08/27 02:14:18;;;;;;;4.72;4.03;;;14.50;99.90;;;;;;5015721;28;20699;-85
2023/08/27 02:16:44;;;;;;;4.82;4.25;;;14.50;99.90;;;;;;5026152;28;20037;-85
2023/08/27 02:19:09;;;;;;;5.45;4.63;;;14.50;99.90;;;;;;5017050;28;20047;-85
2023/08/27 02:21:35;;;;;;;4.90;4.22;;;14.50;99.90;;;;;;5016499;28;20040;-85
2023/08/27 02:24:00;;;;;;;4.63;4.03;;;14.50;99.90;;;;;;5020812;28;20380;-85
2023/08/27 02:26:26;;;;;;;5.60;4.03;;;14.50;99.90;;;;;;5017321;28;20572;-85
2023/08/27 02:28:52;;;;;;;6.47;4.28;;;14.50;99.90;;;;;;5023654;28;20064;-86
2023/08/27 02:31:18;;;;;;;5.07;4.63;;;14.40;99.90;;;;;;5018197;28;20077;-85
2023/08/27 02:33:46;;;;;;;4.28;3.88;;;14.40;99.90;;;;;;5011215;28;20366;-85
2023/08/27 02:36:12;;;;;;;5.47;3.97;;;14.30;99.90;;;;;;5019946;28;20032;-85
2023/08/27 02:38:38;;;;;;;6.38;4.75;;;14.30;99.90;;;;;;5013020;28;20022;-85
2023/08/27 02:41:03;;;;;;;6.78;4.40;;;14.30;99.90;;;;;;5014929;28;20030;-86
2023/08/27 02:43:29;;;;;;;5.63;4.57;;;14.30;99.90;;;;;;5011489;28;20069;-86
2023/08/27 02:45:55;;;;;;;5.03;3.88;;;14.30;99.90;;;;;;5020783;28;20021;-84
2023/08/27 02:48:20;;;;;;;5.55;4.20;;;14.30;99.90;;;;;;5018273;28;20037;-85
2023/08/27 02:50:46;;;;;;;6.68;4.75;;;14.30;99.90;;;;;;5020155;28;20049;-85
2023/08/27 02:53:11;;;;;;;4.80;4.40;;;14.30;99.90;;;;;;5019034;28;20022;-86
2023/08/27 02:55:37;;;;;;;6.13;4.60;;;14.30;99.90;;;;;;5015419;28;20022;-85
2023/08/27 02:58:03;;;;;;;5.30;3.75;;;14.30;99.90;;;;;;5021169;28;20057;-86
2023/08/27 03:00:29;;;;;;;5.68;3.88;;;14.20;99.90;;;;;;5020604;28;20033;-86
2023/08/27 03:02:55;;;;;;;4.40;4.00;;;14.20;99.90;;;;;;5023755;28;20531;-86
2023/08/27 03:05:20;;;;;;;4.00;3.70;;;14.20;99.90;;;;;;5025423;28;20026;-86
2023/08/27 03:07:46;;;;;;;4.18;3.70;;;14.20;99.90;;;;;;5020088;28;20121;-86
2023/08/27 03:10:13;;;;;;;4.35;4.00;;;14.20;99.90;;;;;;5024081;28;20057;-85
2023/08/27 03:12:38;;;;;;;3.83;3.53;;;14.20;99.90;;;;;;5021604;28;20099;-85
2023/08/27 03:15:04;;;;;;;4.60;4.20;;;14.10;99.90;;;;;;5026062;28;20029;-86
2023/08/27 03:17:30;;;;;;;4.10;3.45;;;14.10;99.90;;;;;;5014536;28;20431;-85
2023/08/27 03:19:56;;;;;;;6.38;4.10;;;14.10;99.90;;;;;;5015818;28;20026;-86
2023/08/27 03:22:21;;;;;;;4.00;3.60;;;14.10;99.90;;;;;;5018265;28;20030;-86
2023/08/27 03:24:47;;;;;;;5.05;3.70;;;14.00;99.90;;;;;;5023745;28;20032;-86
2023/08/27 03:27:12;;;;;;;5.13;3.88;;;14.00;99.90;;;;;;5012589;28;20029;-85
2023/08/27 03:29:38;;;;;;;5.95;3.90;;;14.00;99.90;;;;;;5022730;28;20026;-86
2023/08/27 03:32:04;;;;;;;4.32;3.55;;;14.00;99.90;;;;;;5026149;28;20052;-86
2023/08/27 03:34:30;;;;;;;4.38;3.42;;;13.90;99.90;;;;;;5018380;28;20686;-84
2023/08/27 03:36:56;;;;;;;3.88;3.47;;;13.90;99.90;;;;;;5021630;28;20105;-85
2023/08/27 03:39:21;;;;;;;4.88;3.42;;;13.90;99.90;;;;;;5017319;28;20076;-85
2023/08/27 03:41:47;;;;;;;4.32;3.30;;;13.80;99.90;;;;;;5025015;28;20484;-85
2023/08/27 03:44:13;;;;;;;4.70;3.55;;;13.80;99.90;;;;;;5019396;28;20037;-85
2023/08/27 03:46:40;;;;;;;3.83;3.45;;;13.80;99.90;;;;;;5023936;28;20076;-85
2023/08/27 03:49:05;;;;;;;3.78;3.38;;;13.80;99.90;;;;;;5010592;28;20022;-86
2023/08/27 03:51:31;;;;;;;3.28;3.00;;;13.80;99.90;;;;;;5017182;28;20109;-86
2023/08/27 03:53:58;;;;;;;4.35;3.30;;;13.80;99.90;;;;;;5010346;28;20025;-86
2023/08/27 03:56:24;;;;;;;4.05;3.25;;;13.80;99.90;;;;;;5020930;28;20117;-86
2023/08/27 03:58:49;;;;;;;3.65;3.00;;;13.80;99.90;;;;;;5019468;28;20647;-85
2023/08/27 04:01:15;;;;;;;3.42;3.13;;;13.80;99.90;;;;;;5021828;28;20616;-85
2023/08/27 04:03:41;;;;;;;3.88;3.58;;;13.80;99.90;;;;;;5010652;28;20025;-86
2023/08/27 04:06:07;;;;;;;4.43;3.22;;;13.80;99.90;;;;;;5022691;28;20137;-86
2023/08/27 04:08:33;;;;;;;5.57;3.40;;;13.70;99.90;;;;;;5016695;28;20046;-85
2023/08/27 04:10:59;;;;;;;3.10;2.90;;;13.70;99.90;;;;;;5014048;28;20447;-86
2023/08/27 04:13:25;;;;;;;4.07;3.53;;;13.70;99.90;;;;;;5017349;28;20046;-86
2023/08/27 04:16:03;;;;;;;4.32;3.28;;;13.70;99.90;;;;;;5026271;28;20022;-86
2023/08/27 04:18:29;;;;;;;4.38;3.65;;;13.60;99.90;;;;;;5020560;28;20018;-86
2023/08/27 04:20:55;;;;;;;4.05;3.60;;;13.60;99.90;;;;;;5011524;28;20428;-86
2023/08/27 04:23:21;;;;;;;3.80;3.22;;;13.60;99.90;;;;;;5023074;28;20022;-85
2023/08/27 04:25:47;;;;;;;3.72;3.38;;;13.60;99.90;;;;;;5021045;28;20504;-86
2023/08/27 04:28:14;;;;;;;3.00;2.80;;;13.60;99.90;;;;;;5017533;28;20061;-86
2023/08/27 04:30:39;;;;;;;3.30;3.00;;;13.60;99.90;;;;;;5013590;28;20033;-86
2023/08/27 04:33:06;;;;;;;4.15;3.35;;;13.60;99.90;;;;;;5017445;28;20025;-86
2023/08/27 04:35:32;;;;;;;3.78;2.85;;;13.60;99.90;;;;;;5017997;28;20029;-86
2023/08/27 04:37:58;;;;;;;5.05;3.00;;;13.60;99.90;;;;;;5021804;28;20434;-86
2023/08/27 04:40:23;;;;;;;5.47;3.28;;;13.60;99.90;;;;;;5013167;28;20553;-86
2023/08/27 04:42:49;;;;;;;3.95;3.40;;;13.60;99.90;;;;;;5020356;28;20041;-86
2023/08/27 04:45:15;;;;;;;3.00;2.70;;;13.60;99.90;;;;;;5026947;28;20025;-86
2023/08/27 04:47:41;;;;;;;5.20;3.22;;;13.60;99.90;;;;;;5013376;28;20036;-86
2023/08/27 04:50:08;;;;;;;3.22;2.83;;;13.60;99.90;;;;;;5015481;28;20022;-86
2023/08/27 04:52:36;;;;;;;6.97;3.50;;;13.50;99.90;;;;;;5010122;28;20443;-86
2023/08/27 04:55:06;;;;;;;5.32;2.97;;;13.40;99.90;;;;;;5015382;28;20041;-86
2023/08/27 04:57:36;;;;;;;3.58;3.00;;;13.40;99.90;;;;;;5018552;28;20112;-84
2023/08/27 05:00:07;;;;;;;4.32;2.80;;;13.40;99.90;;;;;;5014163;28;20177;-87
2023/08/27 05:02:33;;;;;;;3.03;2.63;;;13.30;99.90;;;;;;5035642;28;20046;-86
2023/08/27 05:04:59;;;;;;;3.10;2.80;;;13.30;99.90;;;;;;5010188;28;20040;-86
2023/08/27 05:07:24;;;;;;;3.55;3.25;;;13.30;99.90;;;;;;5020469;28;20034;-87
2023/08/27 05:09:50;;;;;;;3.42;3.13;;;13.30;99.90;;;;;;5017594;28;20041;-87
2023/08/27 05:12:15;;;;;;;3.10;2.70;;;13.20;99.90;;;;;;5025743;28;20062;-86
2023/08/27 05:14:41;;;;;;;3.00;2.50;;;13.20;99.90;;;;;;5016943;28;20022;-86
2023/08/27 05:17:07;;;;;;;2.90;2.70;;;13.20;99.90;;;;;;5015954;28;20022;-86
2023/08/27 05:19:32;;;;;;;3.20;2.90;;;13.20;99.90;;;;;;5023845;28;20068;-86
2023/08/27 05:21:59;;;;;;;3.47;2.85;;;13.20;99.90;;;;;;5027023;28;20017;-85
2023/08/27 05:24:25;;;;;;;3.80;3.40;;;13.20;99.90;;;;;;5027671;28;20033;-86
2023/08/27 05:26:50;;;;;;;4.80;3.45;;;13.20;99.90;;;;;;5022110;28;20029;-86
2023/08/27 05:29:16;;;;;;;3.13;2.80;;;13.20;99.90;;;;;;5011920;28;20101;-87
2023/08/27 05:31:41;;;;;;;4.10;3.00;;;13.20;99.90;;;;;;5023315;28;20415;-86
2023/08/27 05:34:07;;;;;;;4.25;3.30;;;13.30;99.90;;;;;;5022111;28;20034;-86
2023/08/27 05:36:32;;;;;;;3.38;3.10;;;13.30;99.90;;;;;;5014219;28;20117;-86
2023/08/27 05:38:58;;;;;;;3.30;3.05;;;13.40;99.90;;;;;;5021630;28;20025;-86
2023/08/27 05:41:23;;;;;;;3.35;3.10;;;13.40;99.90;;;;;;5015634;28;20030;-86
2023/08/27 05:43:49;;;;;;;6.72;3.47;;;13.50;99.90;;;;;;5010311;28;20026;-86
2023/08/27 05:46:15;;;;;;;3.40;3.10;;;13.50;99.90;;;;;;5011788;28;20041;-86
2023/08/27 05:48:41;;;;;;;6.68;3.90;;;13.60;99.90;;;;;;5020204;28;20022;-86
2023/08/27 05:51:07;;;;;;;4.18;3.28;;;13.60;99.90;;;;;;5017607;28;20104;-86
2023/08/27 05:53:32;;;;;;;3.47;3.05;;;13.70;99.90;;;;;;5009582;28;20118;-85
2023/08/27 05:55:58;;;;;;;3.88;3.58;;;13.80;99.90;;;;;;5015244;28;20045;-86
2023/08/27 05:58:24;;;;;;;3.80;3.40;;;13.70;99.90;;;;;;5014179;28;20469;-86
2023/08/27 06:00:56;;;;;;;3.67;3.35;;;13.80;99.90;;;;;;5018023;28;20076;-86
2023/08/27 06:03:22;;;;;;;3.97;3.63;;;13.80;99.90;;;;;;5023169;28;20034;-85
2023/08/27 06:05:48;;;;;;;3.78;3.05;;;13.90;99.90;;;;;;5026765;28;20025;-86
2023/08/27 06:08:14;;;;;;;3.80;3.35;;;13.90;99.90;;;;;;5016870;28;20033;-86
2023/08/27 06:10:40;;;;;;;3.58;3.28;;;13.90;99.90;;;;;;5033286;28;20103;-86
2023/08/27 06:13:05;;;;;;;3.92;3.40;;;14.00;99.90;;;;;;5028929;28;20069;-86
2023/08/27 06:15:32;;;;;;;3.50;3.20;;;14.00;99.90;;;;;;5024397;28;20469;-86
2023/08/27 06:18:02;;;;;;;4.38;3.97;;;14.00;99.90;;;;;;5020045;28;20026;-85
2023/08/27 06:20:31;;;;;;;3.67;3.28;;;14.00;99.90;;;;;;5015908;28;20025;-86
2023/08/27 06:22:58;;;;;;;4.18;3.25;;;14.10;99.90;;;;;;5020456;28;20163;-86
2023/08/27 06:25:24;;;;;;;4.07;3.40;;;14.10;99.90;;;;;;5015509;28;20434;-86
2023/08/27 06:27:53;;;;;;;4.88;3.80;;;14.10;99.90;;;;;;5023457;28;20026;-86
2023/08/27 06:30:19;;;;;;;5.75;3.17;;;14.20;99.90;;;;;;5017659;28;20049;-86
2023/08/27 06:32:44;;;;;;;3.50;3.17;;;14.30;99.90;;;;;;5025455;28;20611;-86
2023/08/27 06:35:10;;;;;;;3.90;3.55;;;14.30;99.90;;;;;;5026427;28;20370;-86
2023/08/27 06:37:35;;;;;;;4.95;3.90;;;14.40;99.90;;;;;;5023610;28;20629;-86
2023/08/27 06:40:01;;;;;;;4.20;3.80;;;14.40;99.90;;;;;;5026891;28;20061;-85
2023/08/27 06:42:27;;;;;;;5.70;3.55;;;14.40;99.90;;;;;;5024833;28;20084;-85
2023/08/27 06:44:53;;;;;;;5.55;3.97;;;14.50;99.90;;;;;;5022961;28;20050;-86
2023/08/27 06:47:18;;;;;;;3.88;3.45;;;14.50;99.90;;;;;;5016684;28;20093;-85
2023/08/27 06:49:44;;;;;;;3.92;3.53;;;14.50;99.90;;;;;;5024646;28;20025;-86
2023/08/27 06:52:09;;;;;;;4.28;3.25;;;14.60;99.90;;;;;;5023099;28;20030;-85
2023/08/27 06:54:35;;;;;;;3.63;3.33;;;14.60;99.90;;;;;;5019564;28;20107;-86
2023/08/27 06:57:01;;;;;;;3.88;3.58;;;14.60;99.90;;;;;;5020672;28;20045;-86
2023/08/27 06:59:26;;;;;;;4.53;3.38;;;14.70;99.90;;;;;;5024419;28;20045;-85
2023/08/27 07:01:52;;;;;;;3.38;3.13;;;14.70;99.90;;;;;;5021639;28;20141;-85
2023/08/27 07:04:17;;;;;;;3.60;3.30;;;14.80;99.90;;;;;;5019350;28;20021;-85
2023/08/27 07:06:43;;;;;;;3.90;3.58;;;14.80;99.90;;;;;;5017539;28;20071;-87
2023/08/27 07:09:08;;;;;;;3.45;3.15;;;14.80;99.90;;;;;;5024538;28;20149;-86
2023/08/27 07:11:34;;;;;;;3.90;3.58;;;14.80;99.90;;;;;;5023916;28;20018;-87
2023/08/27 07:14:00;;;;;;;4.82;3.55;;;15.00;99.90;;;;;;5016510;28;20107;-86
2023/08/27 07:16:26;;;;;;;4.05;3.33;;;15.20;99.90;;;;;;5018734;28;20531;-87
2023/08/27 07:18:52;;;;;;;3.38;3.17;;;15.40;99.90;;;;;;5015286;28;20041;-86
2023/08/27 07:21:18;;;;;;;5.20;4.03;;;15.60;99.90;;;;;;5013698;28;20041;-86
2023/08/27 07:23:43;;;;;;;3.50;3.20;;;15.80;99.90;;;;;;5022401;28;20025;-85
2023/08/27 07:26:09;;;;;;;3.67;3.20;;;16.00;99.90;;;;;;5018461;28;20026;-87
2023/08/27 07:28:35;;;;;;;4.00;2.85;;;16.10;99.90;;;;;;5026611;28;20024;-85
2023/08/27 07:31:00;;;;;;;2.88;2.63;;;16.20;99.90;;;;;;5020408;28;20796;-86
2023/08/27 07:33:27;;;;;;;3.47;3.17;;;16.40;99.90;;;;;;5019272;28;20033;-86
2023/08/27 07:35:55;;;;;;;4.20;3.10;;;16.60;99.90;;;;;;5023076;28;20491;-85
2023/08/27 07:38:22;;;;;;;3.00;2.80;;;16.80;99.90;;;;;;5015976;28;20076;-87
2023/08/27 07:40:47;;;;;;;3.33;3.00;;;17.00;99.90;;;;;;5010424;28;20053;-86
2023/08/27 07:43:13;;;;;;;3.10;2.78;;;17.10;99.90;;;;;;5017299;28;20141;-86
2023/08/27 07:45:39;;;;;;;3.90;2.28;;;17.30;99.90;;;;;;5016662;28;20033;-85
2023/08/27 07:48:04;;;;;;;2.90;2.63;;;17.40;99.90;;;;;;5020819;28;20032;-86
2023/08/27 07:50:30;;;;;;;3.20;2.90;;;17.40;99.90;;;;;;5014754;28;20026;-86
2023/08/27 07:52:56;;;;;;;6.05;3.28;;;17.40;99.90;;;;;;5023049;28;20071;-86
2023/08/27 07:55:21;;;;;;;3.60;2.60;;;17.50;99.90;;;;;;5020228;28;20691;-85
2023/08/27 07:57:47;;;;;;;3.83;2.85;;;17.70;99.90;;;;;;5014079;28;20048;-86
2023/08/27 08:00:16;;;;;;;2.78;2.58;;;17.70;99.90;;;;;;5020152;28;20033;-86
2023/08/27 08:02:41;;;;;;;3.03;2.63;;;17.70;99.90;;;;;;5017450;28;20045;-87
2023/08/27 08:05:07;;;;;;;3.40;2.20;;;17.70;99.90;;;;;;5023413;28;20117;-85
2023/08/27 08:07:34;;;;;;;3.28;2.40;;;17.70;99.90;;;;;;5011031;28;20022;-85
2023/08/27 08:10:00;;;;;;;3.30;3.00;;;17.80;99.90;;;;;;5026581;28;20010;-85
2023/08/27 08:12:25;;;;;;;3.33;2.67;;;17.90;99.90;;;;;;5045411;28;20018;-84
2023/08/27 08:14:52;;;;;;;3.40;2.63;;;18.00;99.90;;;;;;5038539;28;20451;-85
2023/08/27 08:17:17;;;;;;;3.70;2.78;;;18.00;99.90;;;;;;5021150;28;20120;-85
2023/08/27 08:19:43;;;;;;;3.38;2.33;;;18.10;99.90;;;;;;5018462;28;20083;-85
2023/08/27 08:22:09;;;;;;;3.90;2.90;;;18.20;99.90;;;;;;5014430;28;20048;-85
2023/08/27 08:24:35;;;;;;;2.72;2.40;;;18.40;99.90;;;;;;5009762;28;20116;-85
2023/08/27 08:27:02;;;;;;;2.72;2.50;;;18.50;99.90;;;;;;5020652;28;20029;-86
2023/08/27 08:29:30;;;;;;;3.35;2.22;;;18.70;99.90;;;;;;5016769;28;20025;-85
2023/08/27 08:31:57;;;;;;;2.72;2.53;;;18.80;99.90;;;;;;5017429;28;20026;-85
2023/08/27 08:34:23;;;;;;;2.35;2.10;;;18.90;99.90;;;;;;5015481;28;20033;-82
2023/08/27 08:36:49;;;;;;;3.65;2.95;;;19.00;99.90;;;;;;5020785;28;20032;-82
2023/08/27 08:39:14;;;;;;;2.70;2.50;;;18.90;99.90;;;;;;5017170;28;20077;-82
2023/08/27 08:41:43;;;;;;;2.53;2.17;;;18.90;99.90;;;;;;5018806;28;20033;-84
2023/08/27 08:44:20;;;;;;;2.88;2.28;;;18.90;99.90;;;;;;5015658;28;20022;-85
2023/08/27 08:46:50;;;;;;;2.55;2.35;;;18.90;99.90;;;;;;5015499;28;20420;-85
2023/08/27 08:49:17;;;;;;;3.75;2.45;;;18.90;99.90;;;;;;5015538;28;20072;-85
2023/08/27 08:51:43;;;;;;;3.70;2.83;;;18.90;99.90;;;;;;5025637;28;20059;-85
2023/08/27 08:54:15;;;;;;;2.13;1.90;;;18.90;99.90;;;;;;5017713;28;20021;-86
2023/08/27 08:56:45;;;;;;;2.67;2.47;;;18.90;99.90;;;;;;5025797;28;20111;-86
2023/08/27 08:59:12;;;;;;;2.67;2.40;;;19.00;99.90;;;;;;5016568;28;20036;-85
2023/08/27 09:01:38;;;;;;;3.03;2.50;;;19.10;99.90;;;;;;5023220;28;20037;-86
2023/08/27 09:04:06;;;;;;;3.75;2.17;;;19.30;99.90;;;;;;5019470;28;20030;-83
2023/08/27 09:06:32;;;;;;;3.50;2.03;;;19.40;99.90;;;;;;5015081;28;20796;-82
2023/08/27 09:09:00;;;;;;;2.28;2.08;;;19.50;99.90;;;;;;5013949;28;20168;-82
2023/08/27 09:11:27;;;;;;;3.28;2.40;;;19.50;99.90;;;;;;5020321;28;20036;-83
2023/08/27 09:13:54;;;;;;;4.72;2.40;;;19.60;99.90;;;;;;5019660;28;20048;-83
2023/08/27 09:16:20;;;;;;;3.13;1.80;;;19.70;99.90;;;;;;5019534;28;20041;-84
2023/08/27 09:18:45;;;;;;;2.20;1.92;;;19.70;99.90;;;;;;5019530;28;20025;-83
2023/08/27 09:21:11;;;;;;;3.22;1.85;;;19.70;99.90;;;;;;5013664;28;20393;-83
2023/08/27 09:23:37;;;;;;;1.92;1.83;;;19.70;99.90;;;;;;5016645;28;20021;-84
2023/08/27 09:26:04;;;;;;;2.63;2.17;;;19.60;99.90;;;;;;5019817;28;20025;-82
2023/08/27 09:28:30;;;;;;;3.05;2.17;;;19.60;99.90;;;;;;5022390;28;20018;-84
2023/08/27 09:30:58;;;;;;;2.53;1.70;;;19.60;99.90;;;;;;5017235;28;20040;-83
2023/08/27 09:33:42;;;;;;;2.22;1.73;;;19.60;99.90;;;;;;5015626;28;20018;-83
2023/08/27 09:36:09;;;;;;;2.17;1.83;;;19.60;99.90;;;;;;5010131;28;20101;-84
2023/08/27 09:38:35;;;;;;;3.92;2.20;;;19.70;99.90;;;;;;5006653;28;20029;-84
2023/08/27 09:41:17;;;;;;;3.20;1.95;;;19.70;99.90;;;;;;5017251;28;20030;-85
2023/08/27 09:43:53;;;;;;;3.50;2.40;;;19.80;99.90;;;;;;5010334;28;20037;-85
2023/08/27 09:46:19;;;;;;;2.00;1.80;;;19.80;99.90;;;;;;5018099;28;20032;-84
2023/08/27 09:48:59;;;;;;;2.53;1.70;;;19.90;99.90;;;;;;5010889;28;20030;-84
2023/08/27 09:51:27;;;;;;;2.00;1.90;;;19.90;99.90;;;;;;5015483;28;20047;-83
2023/08/27 09:53:53;;;;;;;2.47;2.00;;;19.90;99.90;;;;;;5008163;28;20022;-84
2023/08/27 09:56:25;;;;;;;1.88;1.77;;;19.90;99.90;;;;;;5010215;28;20044;-83
2023/08/27 09:58:55;;;;;;;1.90;1.58;;;20.00;99.90;;;;;;5029514;28;20807;-83
2023/08/27 10:01:33;;;;;;;2.35;1.70;;;20.00;99.90;;;;;;5015893;28;20705;-84
2023/08/27 10:04:03;;;;;;;3.75;2.08;;;20.00;99.90;;;;;;5012166;28;20378;-84
2023/08/27 10:06:35;;;;;;;2.30;1.83;;;20.10;99.90;;;;;;5010909;28;20026;-82
2023/08/27 10:09:00;;;;;;;2.08;1.90;;;20.10;99.90;;;;;;5015104;28;20045;-84
2023/08/27 10:11:27;;;;;;;2.03;1.92;;;20.20;99.90;;;;;;5018800;28;20065;-84
2023/08/27 10:13:54;;;;;;;1.83;1.73;;;20.20;99.90;;;;;;5019370;28;20025;-84
2023/08/27 10:16:20;;;;;;;2.28;2.00;;;20.20;99.90;;;;;;5019667;28;20026;-85
2023/08/27 10:18:46;;;;;;;2.40;2.13;;;20.30;99.90;;;;;;5018130;28;20034;-84
2023/08/27 10:21:12;;;;;;;2.90;1.75;;;20.30;99.90;;;;;;5019806;28;20061;-84
2023/08/27 10:23:39;;;;;;;2.10;1.90;;;20.40;99.90;;;;;;5020054;28;20117;-85
2023/08/27 10:26:05;;;;;;;3.70;2.03;;;20.40;99.90;;;;;;5009514;28;20018;-85
2023/08/27 10:28:35;;;;;;;4.53;2.00;;;20.50;99.90;;;;;;5015532;28;20022;-84
2023/08/27 10:31:05;;;;;;;2.53;2.03;;;20.60;99.90;;;;;;5009978;28;20026;-84
2023/08/27 10:33:31;;;;;;;2.42;1.83;;;20.60;99.90;;;;;;5023262;28;20617;-84
2023/08/27 10:36:01;;;;;;;1.98;1.70;;;20.70;99.90;;;;;;5021710;28;20029;-85
2023/08/27 10:38:29;;;;;;;3.10;2.38;;;20.80;99.90;;;;;;5011278;28;20018;-85
2023/08/27 10:40:55;;;;;;;2.25;1.80;;;20.80;99.90;;;;;;5019950;28;20099;-85
2023/08/27 10:43:21;;;;;;;4.53;1.90;;;20.80;99.90;;;;;;5011613;28;20144;-85
2023/08/27 10:45:48;;;;;;;2.88;1.90;;;20.90;99.90;;;;;;5015709;28;20021;-85
2023/08/27 10:48:20;;;;;;;1.92;1.70;;;20.90;99.90;;;;;;5024739;28;20094;-85
2023/08/27 10:50:49;;;;;;;5.32;2.05;;;20.80;99.90;;;;;;5020437;28;20024;-85
2023/08/27 10:53:16;;;;;;;2.25;1.75;;;20.90;99.90;;;;;;5013954;28;20118;-85
2023/08/27 10:55:50;;;;;;;2.83;1.98;;;20.80;99.90;;;;;;5021966;28;20124;-85
2023/08/27 10:58:21;;;;;;;2.88;1.73;;;20.80;99.90;;;;;;5023065;28;20118;-85
2023/08/27 11:00:56;;;;;;;1.70;1.60;;;20.80;99.90;;;;;;5023008;28;20041;-86
2023/08/27 11:03:22;;;;;;;2.92;1.67;;;20.80;99.90;;;;;;5027644;28;20033;-85
2023/08/27 11:06:12;;;;;;;2.25;1.63;;;20.80;99.90;;;;;;5022528;28;20084;-85
2023/08/27 11:08:40;;;;;;;2.05;1.90;;;20.90;99.90;;;;;;5018429;28;20091;-85
2023/08/27 11:11:12;;;;;;;2.90;2.17;;;20.80;99.90;;;;;;5023664;28;20048;-84
2023/08/27 11:13:41;;;;;;;2.35;2.08;;;20.90;99.90;;;;;;5019146;28;20022;-87
2023/08/27 11:16:14;;;;;;;2.20;1.70;;;20.90;99.90;;;;;;5017094;28;20025;-84
2023/08/27 11:18:48;;;;;;;3.38;1.77;;;20.90;99.90;;;;;;5014334;28;20030;-85
2023/08/27 11:21:40;;;;;;;4.13;2.70;;;20.90;99.90;;;;;;5022731;28;20033;-84
2023/08/27 11:24:23;;;;;;;3.83;2.35;;;21.00;99.90;;;;;;5014111;28;20067;-84
2023/08/27 11:26:49;;;;;;;3.58;2.00;;;21.00;99.90;;;;;;5011676;28;20020;-84
2023/08/27 11:29:16;;;;;;;2.90;1.60;;;21.00;99.90;;;;;;5016059;28;20721;-84
2023/08/27 11:31:43;;;;;;;2.33;1.75;;;21.00;99.90;;;;;;5022495;28;20584;-85
2023/08/27 11:34:16;;;;;;;5.75;1.95;;;21.00;99.90;;;;;;5022873;28;20064;-85
2023/08/27 11:36:44;;;;;;;1.52;1.42;;;21.00;99.90;;;;;;5019001;28;20044;-85
2023/08/27 11:39:11;;;;;;;2.95;1.50;;;20.90;99.90;;;;;;5020707;28;20120;-84
2023/08/27 11:41:38;;;;;;;2.67;1.80;;;21.00;99.90;;;;;;5016624;28;20029;-84
2023/08/27 11:44:05;;;;;;;2.80;1.50;;;21.00;99.90;;;;;;5020824;28;20091;-84
2023/08/27 11:46:30;;;;;;;1.67;1.58;;;20.90;99.90;;;;;;5018997;28;20033;-85
2023/08/27 11:48:56;;;;;;;3.58;1.80;;;20.90;99.90;;;;;;5019393;28;20442;-84
2023/08/27 11:51:22;;;;;;;4.75;1.80;;;20.90;99.90;;;;;;5017411;28;20029;-83
2023/08/27 11:53:49;;;;;;;1.20;1.10;;;20.80;99.90;;;;;;5021451;28;20104;-85
2023/08/27 11:56:15;;;;;;;2.63;1.90;;;20.70;99.90;;;;;;5016959;28;20041;-84
2023/08/27 11:58:54;;;;;;;2.20;1.80;;;20.70;99.90;;;;;;5009548;28;20030;-85
2023/08/27 12:01:21;;;;;;;3.03;1.80;;;20.60;99.90;;;;;;5015298;28;20137;-85
2023/08/27 12:03:48;;;;;;;1.55;1.45;;;20.50;99.90;;;;;;5021354;28;20022;-85
2023/08/27 12:06:20;;;;;;;4.00;1.77;;;20.40;99.90;;;;;;5014363;28;20025;-83
2023/08/27 12:08:48;;;;;;;3.72;1.83;;;20.30;99.90;;;;;;5013736;28;20600;-85
2023/08/27 12:11:16;;;;;;;3.20;2.70;;;20.00;99.90;;;;;;5017591;28;20409;-84
2023/08/27 12:13:53;;;;;;;5.70;2.10;;;19.80;99.90;;;;;;5030001;28;20075;-85
2023/08/27 12:16:30;;;;;;;5.00;2.90;;;19.60;99.90;;;;;;5020728;28;20030;-86
2023/08/27 12:19:15;;;;;;;5.10;2.42;;;19.50;99.90;;;;;;5020978;28;20041;-83
2023/08/27 12:21:50;;;;;;;3.15;2.17;;;19.30;99.90;;;;;;5023989;28;20041;-84
2023/08/27 12:24:36;;;;;;;3.97;2.47;;;19.00;99.90;;;;;;5020960;28;20064;-86
2023/08/27 12:27:06;;;;;;;3.15;2.55;;;18.50;99.90;;;;;;5017168;28;20250;-86
2023/08/27 12:29:35;;;;;;;2.60;2.38;;;18.00;99.90;;;;;;5021378;28;20037;-86
2023/08/27 12:32:18;;;;;;;3.42;2.55;;;17.60;99.90;;;;;;5012786;28;20034;-86
2023/08/27 12:34:51;;;;;;;2.80;2.03;;;17.30;99.90;;;;;;5019907;28;20034;-84
2023/08/27 12:37:19;;;;;;;2.70;1.90;;;17.10;99.90;;;;;;5020305;28;20365;-84
2023/08/27 12:39:46;;;;;;;2.92;2.45;;;17.00;99.90;;;;;;5021324;28;20425;-85
2023/08/27 12:42:13;;;;;;;5.25;2.33;;;16.80;99.90;;;;;;5018708;28;20598;-86
2023/08/27 12:44:39;;;;;;;2.60;2.40;;;16.70;99.90;;;;;;5023820;28;20725;-85
2023/08/27 12:47:07;;;;;;;4.25;2.83;;;16.60;99.90;;;;;;5021140;28;20099;-85
2023/08/27 12:49:33;;;;;;;3.80;3.03;;;16.60;99.90;;;;;;5018219;28;20626;-85